createdAt,value
2023-05-06T00:02:38.167Z,7.43
2023-05-06T00:05:41.872Z,7.47
2023-05-06T00:08:45.274Z,7.62
2023-05-06T00:11:47.967Z,7.57
2023-05-06T00:14:50.319Z,7.07
2023-05-06T00:17:52.937Z,7.60
2023-05-06T00:20:56.097Z,7.82
2023-05-06T00:23:58.741Z,7.07
2023-05-06T00:27:01.873Z,7.57
2023-05-06T00:30:05.533Z,8.13
2023-05-06T00:33:08.808Z,7.50
2023-05-06T00:36:11.453Z,8.32
2023-05-06T00:39:14.334Z,7.78
2023-05-06T00:42:17.041Z,7.25
2023-05-06T00:45:19.317Z,8.43
2023-05-06T00:48:22.208Z,8.32
2023-05-06T00:51:25.913Z,7.50
2023-05-06T00:54:29.857Z,6.90
2023-05-06T00:57:32.654Z,7.30
2023-05-06T01:00:35.617Z,6.80
2023-05-06T01:03:38.421Z,7.22
2023-05-06T01:06:49.372Z,6.93
2023-05-06T01:10:10.770Z,7.82
2023-05-06T01:13:16.227Z,7.57
2023-05-06T01:16:23.452Z,7.30
2023-05-06T01:19:43.152Z,7.12
2023-05-06T01:22:45.581Z,8.00
2023-05-06T01:25:48.226Z,7.47
2023-05-06T01:28:52.031Z,7.55
2023-05-06T01:31:59.969Z,8.20
2023-05-06T01:35:24.307Z,8.25
2023-05-06T01:38:48.279Z,8.68
2023-05-06T01:41:51.910Z,7.93
2023-05-06T01:44:57.281Z,8.15
2023-05-06T01:47:59.860Z,7.23
2023-05-06T01:51:03.232Z,7.72
2023-05-06T01:54:05.901Z,7.85
2023-05-06T01:57:08.532Z,8.00
2023-05-06T02:00:11.285Z,7.85
2023-05-06T02:03:14.405Z,7.10
2023-05-06T02:06:17.569Z,7.22
2023-05-06T02:09:20.693Z,7.47
2023-05-06T02:12:25.489Z,8.02
2023-05-06T02:15:29.046Z,7.30
2023-05-06T02:18:32.066Z,7.20
2023-05-06T02:21:34.447Z,7.22
2023-05-06T02:24:37.127Z,7.87
2023-05-06T02:27:39.691Z,7.47
2023-05-06T02:30:42.367Z,7.65
2023-05-06T02:33:45.955Z,7.23
2023-05-06T02:36:48.569Z,8.07
2023-05-06T02:39:50.994Z,10.48
2023-05-06T02:42:53.690Z,7.75
2023-05-06T02:45:56.201Z,7.50
2023-05-06T02:48:58.926Z,7.50
2023-05-06T02:52:01.286Z,7.15
2023-05-06T02:55:04.085Z,7.05
2023-05-06T02:58:06.381Z,7.40
2023-05-06T03:01:09.344Z,8.00
2023-05-06T03:04:11.790Z,7.90
2023-05-06T03:07:14.484Z,7.10
2023-05-06T03:10:16.948Z,7.62
2023-05-06T03:13:19.613Z,8.07
2023-05-06T03:16:22.129Z,8.13
2023-05-06T03:19:25.772Z,7.13
2023-05-06T03:22:28.955Z,7.97
2023-05-06T03:25:32.432Z,7.47
2023-05-06T03:28:35.752Z,7.12
2023-05-06T03:31:39.098Z,8.13
2023-05-06T03:34:41.983Z,6.93
2023-05-06T03:37:45.301Z,7.55
2023-05-06T03:40:47.899Z,7.47
2023-05-06T03:43:50.975Z,7.90
2023-05-06T03:46:53.972Z,7.90
2023-05-06T03:49:57.250Z,8.60
2023-05-06T03:53:00.628Z,7.87
2023-05-06T03:56:03.888Z,7.72
2023-05-06T03:59:06.643Z,7.60
2023-05-06T04:02:09.552Z,7.82
2023-05-06T04:05:12.930Z,7.50
2023-05-06T04:08:17.155Z,8.05
2023-05-06T04:11:20.045Z,8.50
2023-05-06T04:14:22.675Z,8.27
2023-05-06T04:17:26.068Z,8.68
2023-05-06T04:20:29.118Z,8.00
2023-05-06T04:23:32.672Z,7.75
2023-05-06T04:26:35.411Z,8.50
2023-05-06T04:29:38.371Z,8.30
2023-05-06T04:32:40.872Z,8.05
2023-05-06T04:35:53.786Z,8.23
2023-05-06T04:38:57.089Z,7.62
2023-05-06T04:41:59.990Z,8.55
2023-05-06T04:45:03.532Z,8.38
2023-05-06T04:48:09.026Z,7.53
2023-05-06T04:51:11.571Z,7.97
2023-05-06T04:54:14.418Z,7.75
2023-05-06T04:57:17.501Z,8.40
2023-05-06T05:00:20.375Z,7.90
2023-05-06T05:03:23.218Z,7.60
2023-05-06T05:06:28.133Z,8.07
2023-05-06T05:09:31.072Z,8.48
2023-05-06T05:12:33.947Z,8.70
2023-05-06T05:15:38.693Z,8.50
2023-05-06T05:18:42.074Z,7.32
2023-05-06T05:21:45.156Z,8.90
2023-05-06T05:24:48.498Z,7.85
2023-05-06T05:27:52.510Z,9.65
2023-05-06T05:30:55.271Z,8.70
2023-05-06T05:33:58.020Z,8.27
2023-05-06T05:37:01.947Z,8.00
2023-05-06T05:40:05.588Z,8.55
2023-05-06T05:43:09.480Z,7.80
2023-05-06T05:46:12.936Z,8.70
2023-05-06T05:49:15.926Z,8.38
2023-05-06T05:52:18.470Z,8.37
2023-05-06T05:55:21.579Z,8.70
2023-05-06T05:58:24.345Z,8.32
2023-05-06T06:01:27.243Z,8.23
2023-05-06T06:04:30.509Z,9.13
2023-05-06T06:07:33.348Z,8.63
2023-05-06T06:10:36.064Z,9.63
2023-05-06T06:13:39.161Z,9.32
2023-05-06T06:16:42.033Z,9.35
2023-05-06T06:19:47.544Z,8.73
2023-05-06T06:22:50.193Z,10.13
2023-05-06T06:25:52.662Z,10.18
2023-05-06T06:28:55.364Z,9.73
2023-05-06T06:31:58.377Z,8.32
2023-05-06T06:35:01.125Z,9.55
2023-05-06T06:38:03.576Z,7.63
2023-05-06T06:41:06.251Z,8.13
2023-05-06T06:44:08.589Z,7.68
2023-05-06T06:47:11.241Z,8.25
2023-05-06T06:50:13.776Z,8.38
2023-05-06T06:53:16.528Z,8.77
2023-05-06T06:56:19.026Z,8.05
2023-05-06T06:59:21.726Z,9.15
2023-05-06T07:02:24.150Z,7.97
2023-05-06T07:05:29.857Z,8.30
2023-05-06T07:08:32.186Z,8.07
2023-05-06T07:11:34.912Z,8.25
2023-05-06T07:14:37.234Z,8.75
2023-05-06T07:17:39.991Z,8.02
2023-05-06T07:20:42.479Z,8.90
2023-05-06T07:23:45.188Z,8.90
2023-05-06T07:26:47.565Z,8.77
2023-05-06T07:29:50.686Z,9.63
2023-05-06T07:32:53.353Z,9.30
2023-05-06T07:35:56.199Z,9.18
2023-05-06T07:38:58.522Z,8.87
2023-05-06T07:42:02.006Z,8.25
2023-05-06T07:45:05.421Z,9.60
2023-05-06T07:48:08.337Z,8.55
2023-05-06T07:51:11.473Z,8.55
2023-05-06T07:54:14.191Z,9.50
2023-05-06T07:57:17.097Z,9.05
2023-05-06T08:00:19.893Z,8.57
2023-05-06T08:03:22.617Z,8.68
2023-05-06T08:06:25.216Z,9.60
2023-05-06T08:09:27.916Z,9.23
2023-05-06T08:12:30.630Z,8.70
2023-05-06T08:15:33.360Z,8.43
2023-05-06T08:18:35.764Z,8.88
2023-05-06T08:21:38.545Z,10.02
2023-05-06T08:24:40.941Z,9.67
2023-05-06T08:27:43.618Z,8.98
2023-05-06T08:30:48.405Z,9.43
2023-05-06T08:33:53.878Z,9.48
2023-05-06T08:36:56.911Z,8.77
2023-05-06T08:40:00.107Z,9.80
2023-05-06T08:43:04.940Z,10.07
2023-05-06T08:46:07.952Z,10.07
2023-05-06T08:49:11.042Z,10.98
2023-05-06T08:52:13.997Z,10.43
2023-05-06T08:55:17.247Z,9.87
2023-05-06T08:58:21.854Z,10.85
2023-05-06T09:01:28.082Z,10.02
2023-05-06T09:04:31.328Z,10.30
2023-05-06T09:07:33.665Z,10.27
2023-05-06T09:10:46.239Z,9.20
2023-05-06T09:13:48.924Z,9.30
2023-05-06T09:16:53.094Z,8.70
2023-05-06T09:19:59.476Z,8.95
2023-05-06T09:23:02.883Z,9.65
2023-05-06T09:26:05.450Z,9.77
2023-05-06T09:29:08.442Z,9.60
2023-05-06T09:32:14.599Z,9.80
2023-05-06T09:35:17.515Z,8.85
2023-05-06T09:38:20.167Z,9.90
2023-05-06T09:41:25.711Z,8.00
2023-05-06T09:44:29.130Z,8.77
2023-05-06T09:47:35.564Z,8.18
2023-05-06T09:50:38.044Z,7.95
2023-05-06T09:53:41.613Z,7.72
2023-05-06T09:56:44.569Z,8.03
2023-05-06T09:59:47.676Z,7.03
2023-05-06T10:02:50.932Z,8.00
2023-05-06T10:05:57.204Z,7.10
2023-05-06T10:09:00.914Z,5.90
2023-05-06T10:12:04.546Z,6.73
2023-05-06T10:15:08.231Z,5.93
2023-05-06T10:18:11.376Z,7.03
2023-05-06T10:21:19.517Z,6.82
2023-05-06T10:24:33.382Z,7.00
2023-05-06T10:27:40.811Z,6.50
2023-05-06T10:30:45.015Z,6.80
2023-05-06T10:33:54.491Z,5.55
2023-05-06T10:36:58.730Z,5.45
2023-05-06T10:40:04.237Z,5.62
2023-05-06T10:43:32.977Z,5.87
2023-05-06T10:46:59.731Z,6.28
2023-05-06T10:50:37.926Z,5.15
2023-05-06T10:54:02.640Z,4.07
2023-05-06T10:57:09.825Z,5.32
2023-05-06T11:00:13.226Z,5.23
2023-05-06T11:03:18.919Z,5.12
2023-05-06T11:06:39.075Z,4.80
2023-05-06T11:10:14.233Z,4.62
2023-05-06T11:13:24.514Z,5.35
2023-05-06T11:16:47.356Z,5.27
2023-05-06T11:19:49.697Z,5.30
2023-05-06T11:22:54.629Z,6.50
2023-05-06T11:25:58.611Z,5.53
2023-05-06T11:29:04.088Z,6.05
2023-05-06T11:32:22.493Z,6.07
2023-05-06T11:35:26.265Z,5.87
2023-05-06T11:38:44.515Z,5.47
2023-05-06T11:41:47.234Z,5.20
2023-05-06T11:44:49.625Z,5.87
2023-05-06T11:47:54.760Z,5.10
2023-05-06T11:50:57.613Z,4.72
2023-05-06T11:54:10.133Z,5.20
2023-05-06T11:57:13.397Z,5.10
2023-05-06T12:00:16.451Z,4.30
2023-05-06T12:03:20.452Z,4.63
2023-05-06T12:06:34.087Z,5.20
2023-05-06T12:09:43.187Z,5.55
2023-05-06T12:12:45.998Z,5.62
2023-05-06T12:15:50.390Z,4.82
2023-05-06T12:18:54.102Z,5.03
2023-05-06T12:22:13.725Z,4.82
2023-05-06T12:25:16.376Z,5.72
2023-05-06T12:28:20.976Z,4.72
2023-05-06T12:31:24.452Z,4.47
2023-05-06T12:34:40.195Z,5.00
2023-05-06T12:37:42.488Z,5.07
2023-05-06T12:40:53.685Z,4.90
2023-05-06T12:43:56.300Z,5.65
2023-05-06T12:47:23.767Z,4.80
2023-05-06T12:50:43.638Z,5.73
2023-05-06T12:53:46.387Z,5.55
2023-05-06T12:56:48.733Z,6.72
2023-05-06T12:59:51.455Z,5.37
2023-05-06T13:02:53.948Z,5.32
2023-05-06T13:05:56.643Z,5.77
2023-05-06T13:08:59.509Z,5.30
2023-05-06T13:12:03.133Z,5.03
2023-05-06T13:15:06.250Z,5.43
2023-05-06T13:18:09.254Z,5.00
2023-05-06T13:21:13.186Z,4.60
2023-05-06T13:24:17.127Z,4.75
2023-05-06T13:27:19.484Z,4.50
2023-05-06T13:30:22.162Z,4.62
2023-05-06T13:33:24.529Z,5.05
2023-05-06T13:36:27.366Z,4.30
2023-05-06T13:39:29.676Z,5.37
2023-05-06T13:42:32.298Z,6.03
2023-05-06T13:45:34.792Z,5.70
2023-05-06T13:48:37.423Z,6.60
2023-05-06T13:51:39.785Z,5.60
2023-05-06T13:54:42.437Z,5.82
2023-05-06T13:57:44.788Z,5.78
2023-05-06T14:00:48.564Z,5.18
2023-05-06T14:03:51.256Z,5.70
2023-05-06T14:06:53.867Z,5.57
2023-05-06T14:09:56.502Z,5.22
2023-05-06T14:12:59.000Z,5.30
2023-05-06T14:16:01.853Z,5.43
2023-05-06T14:19:05.793Z,5.43
2023-05-06T14:22:08.488Z,5.67
2023-05-06T14:25:11.297Z,6.05
2023-05-06T14:28:15.708Z,6.28
2023-05-06T14:31:18.196Z,5.75
2023-05-06T14:34:20.891Z,6.40
2023-05-06T14:37:23.260Z,6.73
2023-05-06T14:40:26.040Z,6.85
2023-05-06T14:43:28.511Z,6.57
2023-05-06T14:46:32.047Z,7.07
2023-05-06T14:49:34.385Z,8.52
2023-05-06T14:52:38.790Z,8.20
2023-05-06T14:55:42.155Z,8.65
2023-05-06T14:58:44.845Z,7.32
2023-05-06T15:01:47.245Z,7.03
2023-05-06T15:04:49.918Z,8.65
2023-05-06T15:07:52.251Z,7.57
2023-05-06T15:10:55.017Z,7.28
2023-05-06T15:13:57.364Z,8.02
2023-05-06T15:17:00.284Z,8.07
2023-05-06T15:20:04.485Z,8.38
2023-05-06T15:23:07.153Z,8.17
2023-05-06T15:26:09.555Z,7.97
2023-05-06T15:29:12.821Z,8.95
2023-05-06T15:32:15.213Z,9.90
2023-05-06T15:35:17.833Z,8.50
2023-05-06T15:38:20.234Z,8.83
2023-05-06T15:41:26.646Z,8.32
2023-05-06T15:44:29.031Z,8.40
2023-05-06T15:47:31.945Z,9.25
2023-05-06T15:50:36.527Z,9.15
2023-05-06T15:53:40.347Z,8.80
2023-05-06T15:56:42.677Z,8.27
2023-05-06T15:59:45.318Z,7.82
2023-05-06T16:02:47.891Z,9.25
2023-05-06T16:05:53.386Z,8.10
2023-05-06T16:08:55.731Z,8.20
2023-05-06T16:11:58.390Z,8.23
2023-05-06T16:15:01.591Z,8.10
2023-05-06T16:18:04.875Z,9.68
2023-05-06T16:21:07.893Z,9.68
2023-05-06T16:24:11.461Z,9.60
2023-05-06T16:27:14.142Z,8.68
2023-05-06T16:30:17.846Z,8.45
2023-05-06T16:33:20.254Z,9.00
2023-05-06T16:36:22.979Z,7.78
2023-05-06T16:39:25.412Z,8.87
2023-05-06T16:42:28.152Z,8.70
2023-05-06T16:45:30.592Z,7.75
2023-05-06T16:48:33.479Z,7.95
2023-05-06T16:51:36.205Z,7.68
2023-05-06T16:54:39.076Z,8.43
2023-05-06T16:57:41.508Z,7.72
2023-05-06T17:00:44.337Z,7.95
2023-05-06T17:03:46.815Z,8.48
2023-05-06T17:06:49.456Z,7.22
2023-05-06T17:09:51.844Z,7.80
2023-05-06T17:12:54.738Z,8.27
2023-05-06T17:15:57.136Z,8.02
2023-05-06T17:18:59.805Z,8.48
2023-05-06T17:22:02.245Z,8.63
2023-05-06T17:25:05.314Z,8.50
2023-05-06T17:28:07.698Z,8.88
2023-05-06T17:31:10.508Z,8.77
2023-05-06T17:34:12.842Z,8.93
2023-05-06T17:37:15.548Z,9.18
2023-05-06T17:40:18.058Z,8.83
2023-05-06T17:43:23.533Z,8.90
2023-05-06T17:46:26.073Z,7.82
2023-05-06T17:49:28.818Z,9.77
2023-05-06T17:52:31.232Z,9.30
2023-05-06T17:55:33.903Z,9.77
2023-05-06T17:58:36.438Z,9.18
2023-05-06T18:01:39.413Z,9.75
2023-05-06T18:04:45.172Z,9.05
2023-05-06T18:07:47.509Z,9.55
2023-05-06T18:10:50.525Z,9.93
2023-05-06T18:13:53.616Z,10.90
2023-05-06T18:16:57.150Z,9.88
2023-05-06T18:19:59.600Z,9.43
2023-05-06T18:23:19.849Z,10.07
2023-05-06T18:26:44.631Z,9.67
2023-05-06T18:29:48.718Z,10.55
2023-05-06T18:32:52.285Z,10.20
2023-05-06T18:35:56.892Z,9.98
2023-05-06T18:38:59.275Z,8.65
2023-05-06T18:42:02.298Z,9.17
2023-05-06T18:45:07.000Z,9.48
2023-05-06T18:48:10.870Z,9.20
2023-05-06T18:51:15.800Z,8.93
2023-05-06T18:54:22.055Z,8.35
2023-05-06T18:57:26.726Z,9.10
2023-05-06T19:00:29.554Z,9.90
2023-05-06T19:03:33.429Z,10.73
2023-05-06T19:06:39.989Z,10.60
2023-05-06T19:09:43.144Z,9.65
2023-05-06T19:12:45.901Z,10.97
2023-05-06T19:15:54.378Z,10.63
2023-05-06T19:18:58.508Z,9.93
2023-05-06T19:22:02.270Z,10.88
2023-05-06T19:25:05.120Z,10.85
2023-05-06T19:28:07.571Z,13.93
2023-05-06T19:31:11.258Z,13.55
2023-05-06T19:34:13.824Z,10.45
2023-05-06T19:37:16.409Z,9.00
2023-05-06T19:40:19.621Z,7.87
2023-05-06T19:43:23.249Z,8.03
2023-05-06T19:46:25.705Z,7.70
2023-05-06T19:49:30.408Z,7.97
2023-05-06T19:52:34.534Z,8.07
2023-05-06T19:55:37.675Z,8.70
2023-05-06T19:58:40.397Z,9.20
2023-05-06T20:01:43.143Z,9.20
2023-05-06T20:04:55.681Z,9.60
2023-05-06T20:08:02.069Z,9.32
2023-05-06T20:11:05.682Z,7.60
2023-05-06T20:14:08.031Z,7.03
2023-05-06T20:17:10.677Z,8.18
2023-05-06T20:20:13.308Z,7.78
2023-05-06T20:23:15.990Z,7.43
2023-05-06T20:26:18.384Z,7.60
2023-05-06T20:29:21.099Z,7.73
2023-05-06T20:32:23.441Z,8.02
2023-05-06T20:35:27.214Z,8.85
2023-05-06T20:38:30.966Z,7.40
2023-05-06T20:41:33.567Z,7.82
2023-05-06T20:44:36.054Z,7.37
2023-05-06T20:47:38.810Z,8.00
2023-05-06T20:50:41.332Z,8.00
2023-05-06T20:53:46.067Z,6.97
2023-05-06T20:56:48.391Z,7.50
2023-05-06T20:59:52.512Z,8.57
2023-05-06T21:02:55.111Z,9.85
2023-05-06T21:05:57.750Z,9.63
2023-05-06T21:09:00.203Z,9.10
2023-05-06T21:12:05.120Z,9.88
2023-05-06T21:15:08.255Z,9.77
2023-05-06T21:18:11.169Z,9.13
2023-05-06T21:21:13.659Z,9.98
2023-05-06T21:24:16.290Z,9.48
2023-05-06T21:27:18.652Z,9.32
2023-05-06T21:30:22.145Z,8.73
2023-05-06T21:33:24.809Z,8.73
2023-05-06T21:36:27.462Z,10.27
2023-05-06T21:39:29.858Z,9.80
2023-05-06T21:42:32.812Z,9.43
2023-05-06T21:45:36.130Z,9.40
2023-05-06T21:48:38.834Z,9.00
2023-05-06T21:51:41.169Z,9.10
2023-05-06T21:54:46.136Z,8.70
2023-05-06T21:57:48.460Z,8.23
2023-05-06T22:00:52.370Z,7.90
2023-05-06T22:03:55.311Z,7.18
2023-05-06T22:06:57.824Z,7.37
2023-05-06T22:10:00.546Z,6.55
2023-05-06T22:13:03.631Z,6.82
2023-05-06T22:16:08.188Z,6.30
2023-05-06T22:19:10.790Z,6.80
2023-05-06T22:22:13.461Z,7.12
2023-05-06T22:25:15.853Z,6.22
2023-05-06T22:28:19.305Z,6.30
2023-05-06T22:31:22.311Z,6.20
2023-05-06T22:34:24.968Z,6.43
2023-05-06T22:37:27.299Z,6.18
2023-05-06T22:40:29.984Z,6.43
2023-05-06T22:43:32.361Z,6.40
2023-05-06T22:46:35.045Z,6.40
2023-05-06T22:49:38.200Z,6.25
2023-05-06T22:52:41.126Z,6.90
2023-05-06T22:55:43.570Z,6.85
2023-05-06T22:58:46.339Z,6.47
2023-05-06T23:01:48.879Z,7.10
2023-05-06T23:04:51.668Z,7.07
2023-05-06T23:07:54.188Z,7.25
2023-05-06T23:10:56.846Z,6.85
2023-05-06T23:13:59.212Z,7.37
2023-05-06T23:17:01.948Z,6.50
2023-05-06T23:20:04.800Z,6.78
2023-05-06T23:23:10.570Z,6.65
2023-05-06T23:26:13.042Z,6.12
2023-05-06T23:29:15.811Z,5.75
2023-05-06T23:32:18.265Z,5.00
2023-05-06T23:35:20.863Z,5.37
2023-05-06T23:38:23.228Z,5.32
2023-05-06T23:41:25.902Z,5.62
2023-05-06T23:44:28.435Z,5.45
2023-05-06T23:47:31.134Z,5.07
2023-05-06T23:50:33.762Z,5.12
2023-05-06T23:53:36.457Z,4.85
2023-05-06T23:56:38.787Z,5.20
2023-05-06T23:59:41.376Z,6.62
